createdAt,value
2018-03-06T00:00:35.721Z,5.90
2018-03-06T00:03:02.413Z,9.20
2018-03-06T00:05:29.113Z,6.33
2018-03-06T00:07:55.793Z,7.33
2018-03-06T00:10:22.484Z,7.10
2018-03-06T00:12:49.161Z,8.27
2018-03-06T00:15:15.873Z,8.60
2018-03-06T00:17:42.569Z,8.60
2018-03-06T00:20:09.356Z,10.27
2018-03-06T00:22:36.060Z,7.77
2018-03-06T00:25:02.751Z,6.67
2018-03-06T00:27:29.486Z,9.57
2018-03-06T00:29:56.180Z,8.23
2018-03-06T00:32:22.951Z,7.30
2018-03-06T00:34:49.594Z,7.83
2018-03-06T00:37:16.297Z,7.20
2018-03-06T00:39:42.980Z,7.10
2018-03-06T00:42:09.680Z,9.30
2018-03-06T00:44:36.363Z,8.73
2018-03-06T00:47:03.066Z,7.80
2018-03-06T00:49:29.746Z,9.27
2018-03-06T00:51:56.444Z,9.70
2018-03-06T00:54:23.123Z,9.20
2018-03-06T00:56:49.843Z,10.47
2018-03-06T00:59:16.598Z,10.27
2018-03-06T01:01:43.270Z,8.10
2018-03-06T01:04:10.050Z,11.93
2018-03-06T01:06:36.809Z,7.97
2018-03-06T01:09:03.694Z,8.43
2018-03-06T01:11:30.397Z,6.70
2018-03-06T01:13:57.109Z,10.33
2018-03-06T01:16:23.842Z,7.80
2018-03-06T01:18:50.653Z,7.50
2018-03-06T01:21:17.446Z,8.47
2018-03-06T01:23:44.124Z,9.13
2018-03-06T01:26:10.810Z,8.70
2018-03-06T01:28:37.550Z,10.33
2018-03-06T01:31:04.225Z,10.73
2018-03-06T01:33:30.966Z,10.67
2018-03-06T01:35:57.652Z,10.13
2018-03-06T01:38:24.328Z,8.03
2018-03-06T01:40:51.042Z,9.47
2018-03-06T01:43:17.799Z,10.20
2018-03-06T01:45:44.505Z,11.33
2018-03-06T01:48:11.199Z,12.80
2018-03-06T01:50:37.897Z,10.07
2018-03-06T01:53:04.581Z,14.00
2018-03-06T01:55:31.273Z,8.40
2018-03-06T01:57:57.952Z,8.30
2018-03-06T02:00:24.705Z,9.43
2018-03-06T02:02:51.382Z,9.47
2018-03-06T02:05:18.078Z,8.97
2018-03-06T02:07:44.781Z,10.60
2018-03-06T02:10:11.490Z,10.70
2018-03-06T02:12:38.217Z,8.90
2018-03-06T02:15:04.909Z,11.40
2018-03-06T02:17:31.596Z,10.30
2018-03-06T02:19:58.292Z,9.23
2018-03-06T02:22:24.997Z,12.47
2018-03-06T02:24:51.687Z,8.60
2018-03-06T02:27:18.500Z,9.40
2018-03-06T02:29:45.193Z,9.93
2018-03-06T02:32:11.903Z,13.03
2018-03-06T02:34:38.617Z,13.37
2018-03-06T02:37:05.329Z,9.33
2018-03-06T02:39:32.011Z,9.13
2018-03-06T02:41:58.686Z,8.27
2018-03-06T02:44:25.420Z,10.63
2018-03-06T02:46:52.096Z,14.80
2018-03-06T02:49:18.961Z,11.13
2018-03-06T02:51:45.690Z,11.80
2018-03-06T02:54:12.506Z,11.97
2018-03-06T02:56:39.214Z,16.63
2018-03-06T02:59:06.033Z,12.90
2018-03-06T03:01:32.717Z,14.77
2018-03-06T03:03:59.421Z,12.40
2018-03-06T03:06:26.121Z,13.87
2018-03-06T03:08:52.833Z,12.90
2018-03-06T03:11:19.509Z,13.13
2018-03-06T03:13:46.398Z,12.57
2018-03-06T03:16:13.101Z,11.10
2018-03-06T03:18:39.820Z,11.83
2018-03-06T03:21:06.536Z,12.53
2018-03-06T03:23:33.253Z,12.43
2018-03-06T03:25:59.928Z,17.13
2018-03-06T03:28:26.630Z,12.17
2018-03-06T03:30:53.318Z,11.50
2018-03-06T03:33:20.057Z,12.60
2018-03-06T03:35:46.751Z,14.47
2018-03-06T03:38:13.428Z,12.87
2018-03-06T03:40:40.107Z,10.50
2018-03-06T03:43:07.324Z,11.67
2018-03-06T03:45:33.998Z,12.03
2018-03-06T03:48:00.862Z,12.87
2018-03-06T03:50:27.546Z,12.57
2018-03-06T03:52:54.233Z,17.90
2018-03-06T03:55:20.949Z,14.17
2018-03-06T03:57:48.073Z,17.83
2018-03-06T04:00:14.777Z,25.73
2018-03-06T04:02:41.645Z,22.10
2018-03-06T04:05:08.378Z,20.93
2018-03-06T04:07:35.069Z,22.70
2018-03-06T04:10:01.902Z,23.97
2018-03-06T04:12:28.604Z,27.00
2018-03-06T04:14:55.288Z,23.80
2018-03-06T04:17:22.046Z,24.50
2018-03-06T04:19:48.725Z,25.47
2018-03-06T04:22:15.433Z,26.20
2018-03-06T04:24:42.125Z,26.47
2018-03-06T04:27:08.837Z,24.23
2018-03-06T04:29:35.545Z,23.53
2018-03-06T04:32:02.332Z,24.47
2018-03-06T04:34:29.039Z,25.77
2018-03-06T04:36:55.729Z,26.03
2018-03-06T04:39:22.598Z,25.33
2018-03-06T04:41:49.290Z,23.23
2018-03-06T04:44:16.082Z,24.23
2018-03-06T04:46:42.769Z,26.90
2018-03-06T04:49:09.521Z,26.90
2018-03-06T04:51:36.204Z,25.10
2018-03-06T04:54:02.926Z,24.23
2018-03-06T04:56:29.638Z,22.03
2018-03-06T04:58:56.389Z,24.13
2018-03-06T05:01:23.105Z,25.50
2018-03-06T05:03:49.857Z,27.37
2018-03-06T05:06:16.547Z,24.50
2018-03-06T05:08:43.261Z,27.43
2018-03-06T05:11:09.949Z,28.10
2018-03-06T05:13:36.662Z,31.27
2018-03-06T05:16:03.376Z,26.60
2018-03-06T05:18:30.066Z,26.83
2018-03-06T05:20:56.809Z,26.83
2018-03-06T05:23:23.581Z,28.17
2018-03-06T05:25:50.290Z,29.27
2018-03-06T05:28:16.994Z,27.70
2018-03-06T05:30:43.772Z,29.67
2018-03-06T05:33:10.494Z,30.20
2018-03-06T05:35:37.250Z,27.43
2018-03-06T05:38:04.029Z,24.77
2018-03-06T05:40:30.752Z,29.67
2018-03-06T05:42:57.432Z,30.67
2018-03-06T05:45:24.146Z,31.20
2018-03-06T05:47:50.852Z,27.60
2018-03-06T05:50:17.563Z,26.83
2018-03-06T05:52:44.256Z,27.47
2018-03-06T05:55:11.784Z,32.87
2018-03-06T05:57:38.495Z,27.80
2018-03-06T06:00:05.248Z,31.50
2018-03-06T06:02:32.167Z,32.43
2018-03-06T06:04:58.908Z,29.17
2018-03-06T06:07:25.619Z,27.90
2018-03-06T06:09:52.313Z,29.27
2018-03-06T06:12:19.072Z,36.80
2018-03-06T06:14:45.782Z,26.07
2018-03-06T06:17:12.498Z,28.97
2018-03-06T06:19:39.209Z,34.53
2018-03-06T06:22:05.898Z,33.33
2018-03-06T06:24:33.012Z,30.03
2018-03-06T06:26:59.693Z,30.10
2018-03-06T06:29:26.410Z,25.17
2018-03-06T06:31:53.108Z,36.83
2018-03-06T06:34:19.839Z,34.70
2018-03-06T06:36:46.530Z,30.37
2018-03-06T06:39:13.250Z,33.67
2018-03-06T06:41:39.933Z,28.63
2018-03-06T06:44:06.628Z,30.47
2018-03-06T06:46:33.345Z,31.70
2018-03-06T06:49:00.034Z,36.90
2018-03-06T06:51:26.749Z,30.90
2018-03-06T06:53:53.513Z,34.10
2018-03-06T06:56:20.237Z,34.40
2018-03-06T06:58:46.925Z,35.53
2018-03-06T07:01:13.711Z,32.00
2018-03-06T07:03:40.391Z,31.67
2018-03-06T07:06:07.097Z,32.57
2018-03-06T07:08:33.864Z,31.10
2018-03-06T07:11:00.597Z,35.90
2018-03-06T07:13:27.264Z,30.90
2018-03-06T07:15:53.952Z,32.23
2018-03-06T07:18:20.667Z,33.87
2018-03-06T07:20:47.356Z,31.03
2018-03-06T07:23:14.056Z,38.70
2018-03-06T07:25:40.836Z,30.63
2018-03-06T07:28:07.620Z,33.03
2018-03-06T07:30:34.324Z,33.50
2018-03-06T07:33:01.035Z,32.67
2018-03-06T07:35:27.755Z,31.33
2018-03-06T07:37:54.541Z,35.90
2018-03-06T07:40:21.345Z,30.30
2018-03-06T07:42:48.276Z,30.97
2018-03-06T07:45:15.089Z,30.77
2018-03-06T07:47:41.784Z,33.30
2018-03-06T07:50:08.710Z,32.37
2018-03-06T07:52:35.387Z,30.20
2018-03-06T07:55:02.117Z,33.17
2018-03-06T07:57:28.917Z,29.13
2018-03-06T07:59:55.617Z,33.83
2018-03-06T08:02:22.386Z,32.43
2018-03-06T08:04:49.136Z,36.57
2018-03-06T08:07:15.850Z,33.50
2018-03-06T08:09:42.541Z,35.07
2018-03-06T08:12:09.237Z,33.87
2018-03-06T08:14:35.941Z,35.20
2018-03-06T08:17:02.653Z,30.73
2018-03-06T08:19:29.356Z,35.10
2018-03-06T08:21:56.060Z,29.80
2018-03-06T08:24:22.768Z,32.70
2018-03-06T08:26:49.642Z,34.03
2018-03-06T08:29:16.360Z,36.83
2018-03-06T08:31:43.086Z,33.07
2018-03-06T08:34:09.830Z,30.40
2018-03-06T08:36:36.568Z,31.47
2018-03-06T08:39:03.249Z,33.33
2018-03-06T08:41:29.962Z,36.00
2018-03-06T08:43:56.659Z,33.50
2018-03-06T08:46:23.359Z,34.67
2018-03-06T08:48:50.038Z,32.53
2018-03-06T08:51:16.845Z,37.60
2018-03-06T08:53:43.540Z,32.17
2018-03-06T08:56:10.306Z,33.77
2018-03-06T08:58:36.987Z,34.00
2018-03-06T09:01:03.823Z,31.77
2018-03-06T09:03:30.524Z,38.10
2018-03-06T09:05:57.270Z,34.00
2018-03-06T09:08:23.982Z,33.13
2018-03-06T09:10:50.836Z,35.20
2018-03-06T09:13:17.538Z,32.33
2018-03-06T09:15:44.217Z,33.20
2018-03-06T09:18:10.969Z,31.63
2018-03-06T09:20:37.682Z,37.83
2018-03-06T09:23:04.401Z,32.87
2018-03-06T09:25:31.221Z,30.47
2018-03-06T09:27:57.951Z,32.83
2018-03-06T09:30:24.653Z,32.83
2018-03-06T09:32:51.365Z,32.90
2018-03-06T09:35:18.079Z,32.00
2018-03-06T09:37:44.832Z,30.33
2018-03-06T09:40:11.542Z,29.40
2018-03-06T09:42:38.253Z,31.93
2018-03-06T09:45:04.941Z,32.67
2018-03-06T09:47:31.621Z,35.63
2018-03-06T09:49:58.342Z,35.80
2018-03-06T09:52:25.107Z,31.93
2018-03-06T09:54:51.801Z,34.90
2018-03-06T09:57:18.505Z,33.90
2018-03-06T09:59:45.270Z,31.27
2018-03-06T10:02:12.037Z,33.50
2018-03-06T10:04:38.724Z,31.17
2018-03-06T10:07:05.575Z,37.17
2018-03-06T10:09:32.266Z,30.47
2018-03-06T10:11:58.970Z,33.50
2018-03-06T10:14:25.676Z,30.20
2018-03-06T10:16:52.392Z,30.07
2018-03-06T10:19:19.066Z,29.70
2018-03-06T10:21:45.887Z,33.27
2018-03-06T10:24:12.581Z,30.37
2018-03-06T10:26:39.313Z,29.13
2018-03-06T10:29:06.004Z,28.93
2018-03-06T10:31:32.690Z,30.53
2018-03-06T10:33:59.415Z,26.40
2018-03-06T10:36:26.231Z,25.80
2018-03-06T10:38:52.933Z,27.53
2018-03-06T10:41:19.780Z,27.30
2018-03-06T10:43:46.498Z,30.20
2018-03-06T10:46:13.189Z,28.47
2018-03-06T10:48:39.893Z,24.43
2018-03-06T10:51:06.605Z,26.67
2018-03-06T10:53:33.292Z,26.80
2018-03-06T10:55:59.991Z,26.60
2018-03-06T10:58:26.695Z,28.57
2018-03-06T11:00:54.220Z,27.97
2018-03-06T11:03:22.808Z,31.73
2018-03-06T11:05:49.616Z,33.10
2018-03-06T11:08:16.333Z,29.17
2018-03-06T11:10:43.027Z,26.63
2018-03-06T11:13:09.717Z,28.10
2018-03-06T11:15:36.411Z,29.83
2018-03-06T11:18:03.707Z,28.43
2018-03-06T11:20:30.388Z,33.17
2018-03-06T11:22:57.094Z,30.63
2018-03-06T11:25:23.789Z,29.03
2018-03-06T11:27:50.533Z,30.27
2018-03-06T11:30:17.288Z,27.43
2018-03-06T11:32:44.041Z,28.37
2018-03-06T11:35:10.766Z,34.63
2018-03-06T11:37:37.491Z,31.13
2018-03-06T11:40:04.309Z,28.83
2018-03-06T11:42:31.173Z,33.13
2018-03-06T11:44:57.899Z,23.07
2018-03-06T11:47:24.793Z,22.53
2018-03-06T11:49:51.532Z,21.93
2018-03-06T11:52:18.245Z,20.63
2018-03-06T11:54:44.928Z,23.37
2018-03-06T11:57:11.646Z,20.60
2018-03-06T11:59:38.345Z,22.17
2018-03-06T12:02:05.083Z,21.93
2018-03-06T12:04:31.735Z,19.90
2018-03-06T12:06:58.462Z,21.73
2018-03-06T12:09:25.203Z,25.17
2018-03-06T12:11:51.889Z,19.07
2018-03-06T12:14:18.610Z,20.27
2018-03-06T12:16:45.354Z,19.03
2018-03-06T12:19:12.045Z,20.30
2018-03-06T12:21:38.745Z,19.77
2018-03-06T12:24:05.456Z,19.70
2018-03-06T12:26:32.165Z,21.80
2018-03-06T12:28:58.899Z,19.33
2018-03-06T12:31:25.675Z,19.80
2018-03-06T12:33:52.367Z,20.83
2018-03-06T12:36:19.089Z,19.63
2018-03-06T12:38:45.827Z,20.40
2018-03-06T12:41:12.546Z,20.23
2018-03-06T12:43:39.230Z,22.87
2018-03-06T12:46:05.955Z,21.90
2018-03-06T12:48:32.627Z,23.30
2018-03-06T12:50:59.337Z,22.20
2018-03-06T12:53:26.049Z,22.83
2018-03-06T12:55:52.736Z,21.30
2018-03-06T12:58:19.586Z,19.97
2018-03-06T13:00:46.310Z,20.33
2018-03-06T13:03:13.162Z,22.13
2018-03-06T13:05:39.962Z,20.77
2018-03-06T13:08:06.650Z,21.57
2018-03-06T13:10:33.376Z,18.70
2018-03-06T13:13:00.216Z,20.50
2018-03-06T13:15:26.955Z,22.27
2018-03-06T13:17:53.719Z,20.20
2018-03-06T13:20:20.365Z,19.47
2018-03-06T13:22:47.237Z,18.67
2018-03-06T13:25:13.942Z,20.07
2018-03-06T13:27:41.242Z,17.37
2018-03-06T13:30:07.971Z,20.03
2018-03-06T13:32:34.673Z,17.20
2018-03-06T13:35:01.418Z,14.87
2018-03-06T13:37:28.113Z,16.97
2018-03-06T13:39:54.849Z,17.00
2018-03-06T13:42:21.537Z,16.73
2018-03-06T13:44:48.233Z,16.40
2018-03-06T13:47:14.933Z,14.10
2018-03-06T13:49:41.618Z,15.83
2018-03-06T13:52:08.343Z,14.90
2018-03-06T13:54:35.030Z,17.07
2018-03-06T13:57:01.743Z,12.97
2018-03-06T13:59:28.504Z,12.70
2018-03-06T14:01:55.205Z,13.93
2018-03-06T14:04:21.925Z,13.03
2018-03-06T14:06:48.626Z,14.47
2018-03-06T14:09:15.343Z,11.90
2018-03-06T14:11:42.035Z,12.87
2018-03-06T14:14:08.777Z,14.10
2018-03-06T14:16:35.471Z,17.20
2018-03-06T14:19:02.150Z,12.67
2018-03-06T14:21:29.052Z,13.10
2018-03-06T14:23:55.733Z,13.07
2018-03-06T14:26:22.553Z,14.70
2018-03-06T14:28:49.235Z,14.20
2018-03-06T14:31:15.915Z,15.83
2018-03-06T14:33:42.776Z,15.10
2018-03-06T14:36:09.455Z,13.03
2018-03-06T14:38:36.154Z,14.27
2018-03-06T14:41:02.932Z,15.93
2018-03-06T14:43:29.649Z,16.60
2018-03-06T14:45:56.350Z,14.60
2018-03-06T14:48:23.059Z,15.47
2018-03-06T14:50:49.770Z,16.60
2018-03-06T14:53:16.497Z,13.57
2018-03-06T14:55:43.177Z,14.53
2018-03-06T14:58:09.889Z,14.53
2018-03-06T15:00:36.592Z,15.00
2018-03-06T15:03:03.279Z,15.73
2018-03-06T15:05:29.985Z,14.20
2018-03-06T15:07:56.780Z,13.30
2018-03-06T15:10:23.490Z,14.47
2018-03-06T15:12:50.212Z,15.33
2018-03-06T15:15:17.006Z,17.30
2018-03-06T15:17:43.754Z,13.80
2018-03-06T15:20:10.438Z,14.50
2018-03-06T15:22:37.162Z,16.03
2018-03-06T15:25:03.855Z,15.13
2018-03-06T15:27:30.635Z,14.40
2018-03-06T15:29:57.346Z,16.13
2018-03-06T15:32:24.034Z,14.83
2018-03-06T15:34:50.742Z,16.37
2018-03-06T15:37:17.481Z,15.97
2018-03-06T15:39:44.187Z,16.63
2018-03-06T15:42:10.903Z,15.67
2018-03-06T15:44:37.611Z,16.93
2018-03-06T15:47:04.333Z,16.73
2018-03-06T15:49:31.054Z,16.60
2018-03-06T15:51:57.739Z,17.50
2018-03-06T15:54:24.426Z,17.20
2018-03-06T15:56:51.128Z,18.33
2018-03-06T15:59:17.815Z,16.40
2018-03-06T16:01:44.651Z,17.90
2018-03-06T16:04:11.329Z,17.30
2018-03-06T16:06:38.084Z,17.70
2018-03-06T16:09:04.793Z,18.47
2018-03-06T16:11:31.570Z,16.67
2018-03-06T16:13:58.290Z,17.00
2018-03-06T16:16:24.982Z,17.90
2018-03-06T16:18:51.687Z,17.33
2018-03-06T16:21:18.452Z,18.47
2018-03-06T16:23:45.180Z,18.20
2018-03-06T16:26:11.861Z,18.00
2018-03-06T16:28:38.582Z,17.77
2018-03-06T16:31:05.309Z,22.53
2018-03-06T16:33:31.993Z,18.30
2018-03-06T16:35:58.717Z,18.93
2018-03-06T16:38:25.400Z,19.67
2018-03-06T16:40:52.113Z,20.07
2018-03-06T16:43:18.820Z,19.00
2018-03-06T16:45:45.538Z,21.10
2018-03-06T16:48:12.225Z,19.03
2018-03-06T16:50:38.947Z,18.20
2018-03-06T16:53:05.706Z,18.53
2018-03-06T16:55:32.437Z,19.50
2018-03-06T16:57:59.268Z,19.00
2018-03-06T17:00:25.962Z,19.03
2018-03-06T17:02:52.674Z,22.23
2018-03-06T17:05:19.366Z,18.57
2018-03-06T17:07:46.082Z,20.53
2018-03-06T17:10:12.907Z,19.97
2018-03-06T17:12:39.645Z,19.40
2018-03-06T17:15:06.379Z,20.17
2018-03-06T17:17:33.068Z,20.73
2018-03-06T17:19:59.790Z,19.93
2018-03-06T17:22:26.464Z,21.30
2018-03-06T17:24:53.126Z,19.10
2018-03-06T17:27:19.881Z,19.40
2018-03-06T17:29:46.578Z,18.40
2018-03-06T17:32:13.307Z,17.63
2018-03-06T17:34:40.168Z,18.53
2018-03-06T17:37:06.979Z,18.67
2018-03-06T17:39:33.689Z,19.03
2018-03-06T17:42:00.390Z,21.87
2018-03-06T17:44:27.092Z,20.53
2018-03-06T17:46:53.774Z,18.33
2018-03-06T17:49:20.562Z,18.97
2018-03-06T17:51:47.296Z,17.00
2018-03-06T17:54:14.012Z,15.70
2018-03-06T17:56:40.716Z,14.73
2018-03-06T17:59:07.440Z,13.97
2018-03-06T18:01:34.133Z,14.20
2018-03-06T18:04:00.862Z,12.63
2018-03-06T18:06:27.567Z,14.53
2018-03-06T18:08:54.335Z,15.30
2018-03-06T18:11:21.036Z,14.27
2018-03-06T18:13:47.746Z,13.73
2018-03-06T18:16:14.439Z,13.93
2018-03-06T18:18:41.178Z,14.13
2018-03-06T18:21:07.875Z,13.33
2018-03-06T18:23:34.591Z,12.77
2018-03-06T18:26:01.303Z,14.27
2018-03-06T18:28:28.038Z,18.30
2018-03-06T18:30:54.754Z,14.37
2018-03-06T18:33:21.450Z,15.97
2018-03-06T18:35:51.428Z,15.53
2018-03-06T18:38:18.144Z,16.63
2018-03-06T18:40:44.854Z,17.87
2018-03-06T18:43:11.583Z,15.83
2018-03-06T18:45:38.321Z,16.67
2018-03-06T18:48:05.019Z,17.57
2018-03-06T18:50:37.624Z,18.37
2018-03-06T18:53:04.336Z,18.47
2018-03-06T18:55:31.214Z,19.27
2018-03-06T18:57:57.915Z,18.93
2018-03-06T19:00:39.510Z,18.10
2018-03-06T19:03:09.005Z,17.83
2018-03-06T19:05:41.587Z,16.53
2018-03-06T19:08:08.338Z,15.50
2018-03-06T19:10:35.053Z,17.73
2018-03-06T19:13:01.825Z,17.93
2018-03-06T19:15:28.551Z,18.57
2018-03-06T19:17:55.305Z,18.27
2018-03-06T19:20:21.989Z,20.80
2018-03-06T19:22:48.699Z,22.00
2018-03-06T19:25:15.385Z,22.80
2018-03-06T19:27:42.115Z,19.10
2018-03-06T19:30:08.863Z,21.57
2018-03-06T19:32:35.707Z,21.47
2018-03-06T19:35:02.471Z,21.40
2018-03-06T19:37:29.228Z,22.60
2018-03-06T19:39:56.464Z,23.47
2018-03-06T19:42:23.151Z,22.30
2018-03-06T19:44:49.878Z,20.90
2018-03-06T19:47:17.906Z,21.40
2018-03-06T19:49:44.648Z,23.07
2018-03-06T19:52:11.487Z,23.00
2018-03-06T19:54:38.223Z,22.70
2018-03-06T19:57:04.984Z,23.13
2018-03-06T19:59:31.742Z,21.30
2018-03-06T20:01:58.461Z,24.33
2018-03-06T20:04:25.209Z,23.90
2018-03-06T20:06:51.904Z,22.80
2018-03-06T20:09:18.664Z,22.60
2018-03-06T20:11:45.365Z,23.50
2018-03-06T20:14:12.087Z,22.60
2018-03-06T20:16:38.818Z,23.53
2018-03-06T20:19:11.282Z,23.90
2018-03-06T20:21:37.975Z,23.10
2018-03-06T20:27:06.807Z,23.90
2018-03-06T20:29:33.631Z,22.83
2018-03-06T20:32:06.107Z,24.10
2018-03-06T20:34:32.861Z,24.00
2018-03-06T20:36:59.562Z,25.27
2018-03-06T20:39:32.022Z,24.57
2018-03-06T20:41:58.753Z,26.17
2018-03-06T20:44:25.521Z,26.63
2018-03-06T20:46:57.826Z,25.97
2018-03-06T20:49:24.546Z,25.23
2018-03-06T20:51:52.037Z,25.67
2018-03-06T20:54:24.393Z,25.97
2018-03-06T20:56:51.085Z,25.10
2018-03-06T20:59:17.829Z,25.10
2018-03-06T21:01:44.592Z,25.70
2018-03-06T21:04:11.307Z,27.27
2018-03-06T21:06:38.048Z,27.10
2018-03-06T21:09:04.804Z,26.97
2018-03-06T21:11:31.514Z,26.20
2018-03-06T21:13:58.255Z,27.73
2018-03-06T21:16:24.986Z,26.93
2018-03-06T21:18:51.682Z,25.13
2018-03-06T21:21:18.463Z,25.10
2018-03-06T21:23:45.177Z,26.73
2018-03-06T21:26:11.871Z,26.93
2018-03-06T21:28:38.678Z,25.63
2018-03-06T21:31:05.396Z,25.83
2018-03-06T21:33:32.199Z,25.93
2018-03-06T21:35:58.912Z,26.70
2018-03-06T21:38:25.617Z,25.17
2018-03-06T21:40:52.330Z,24.23
2018-03-06T21:43:19.110Z,24.37
2018-03-06T21:45:45.866Z,22.80
2018-03-06T21:48:12.568Z,24.03
2018-03-06T21:50:39.290Z,26.13
2018-03-06T21:53:05.998Z,26.77
2018-03-06T21:55:32.752Z,26.50
2018-03-06T21:57:59.454Z,27.07
2018-03-06T22:00:26.199Z,32.70
2018-03-06T22:02:52.956Z,30.67
2018-03-06T22:05:19.639Z,30.30
2018-03-06T22:07:46.361Z,24.90
2018-03-06T22:10:13.109Z,26.00
2018-03-06T22:12:39.829Z,28.20
2018-03-06T22:15:06.587Z,30.40
2018-03-06T22:17:33.320Z,26.40
2018-03-06T22:20:00.047Z,22.80
2018-03-06T22:22:26.795Z,30.00
2018-03-06T22:24:53.498Z,30.30
2018-03-06T22:27:20.262Z,32.30
2018-03-06T22:29:46.936Z,27.60
2018-03-06T22:32:13.653Z,26.77
2018-03-06T22:34:40.464Z,30.47
2018-03-06T22:37:07.154Z,31.97
2018-03-06T22:39:33.833Z,32.27
2018-03-06T22:42:00.529Z,32.43
2018-03-06T22:44:27.244Z,32.37
2018-03-06T22:46:53.971Z,27.80
2018-03-06T22:49:20.689Z,25.40
2018-03-06T22:51:47.414Z,25.53
2018-03-06T22:54:14.237Z,28.57
2018-03-06T22:56:40.943Z,30.13
2018-03-06T22:59:07.653Z,26.83
2018-03-06T23:01:34.377Z,27.70
2018-03-06T23:04:01.095Z,27.83
2018-03-06T23:06:27.781Z,28.37
2018-03-06T23:08:54.477Z,29.10
2018-03-06T23:11:21.189Z,31.10
2018-03-06T23:13:47.976Z,33.43
2018-03-06T23:16:14.725Z,34.27
2018-03-06T23:18:41.598Z,34.00
2018-03-06T23:21:08.277Z,35.53
2018-03-06T23:23:34.986Z,30.97
2018-03-06T23:26:01.802Z,34.53
2018-03-06T23:28:28.534Z,30.17
2018-03-06T23:30:55.401Z,29.73
2018-03-06T23:33:22.093Z,31.73
2018-03-06T23:35:48.769Z,34.50
2018-03-06T23:38:15.485Z,36.77
2018-03-06T23:40:42.173Z,32.13
2018-03-06T23:43:08.961Z,32.10
2018-03-06T23:45:35.692Z,31.33
2018-03-06T23:48:02.402Z,32.57
2018-03-06T23:50:29.248Z,35.10
2018-03-06T23:52:55.933Z,38.93
2018-03-06T23:55:22.641Z,37.50
2018-03-06T23:57:49.350Z,32.63
